Terminal Aerodrome Forecast
Issued by NWS

Home | Current Version | Previous Version | Graphics & Text | Print | Product List | Glossary On
Versions: 1 2 3 4 5 6 7 8 9 10 11 12 13 14 15 16 17 18 19 20 21 22 23 24 25 26 27 28 29 30 31 32 33 34 35 36 37 38 39 40 41 42 43 44 45 46 47 48 49 50
000
FTUS43 KLOT 250300 AAA
TAFGYY
TAF AMD
KGYY 250303Z 2503/2524 VRB04KT P6SM SCT011 BKN120
      TEMPO 2504/2506 BKN011
     FM250600 05006KT P6SM OVC009
     FM251300 04012G16KT P6SM OVC009
     FM251500 04020G30KT 2SM -SN BR OVC008
      TEMPO 2515/2518 1SM -SN BR VV005
     FM251900 04020G30KT 5SM -SHSN BLSN OVC015=

USA.gov is the U.S. government's official web portal to all federal, state and local government web resources and services.